createdAt,value
2023-02-27T00:02:01.904Z,61.19
2023-02-27T00:05:03.497Z,61.10
2023-02-27T00:08:04.983Z,61.23
2023-02-27T00:11:06.462Z,61.18
2023-02-27T00:14:08.028Z,61.24
2023-02-27T00:17:09.547Z,61.24
2023-02-27T00:20:13.556Z,61.24
2023-02-27T00:23:17.890Z,61.26
2023-02-27T00:26:19.412Z,61.53
2023-02-27T00:29:20.926Z,61.13
2023-02-27T00:32:27.176Z,61.35
2023-02-27T00:35:28.777Z,61.19
2023-02-27T00:38:30.708Z,61.20
2023-02-27T00:41:32.429Z,61.33
2023-02-27T00:44:33.953Z,61.32
2023-02-27T00:47:36.213Z,61.33
2023-02-27T00:50:38.063Z,61.36
2023-02-27T00:53:39.635Z,61.28
2023-02-27T00:56:41.193Z,61.27
2023-02-27T00:59:42.742Z,61.34
2023-02-27T01:02:46.436Z,61.24
2023-02-27T01:05:48.021Z,61.41
2023-02-27T01:08:49.540Z,61.23
2023-02-27T01:11:52.125Z,61.27
2023-02-27T01:14:53.653Z,61.27
2023-02-27T01:17:55.195Z,61.33
2023-02-27T01:20:56.706Z,61.40
2023-02-27T01:23:58.334Z,61.39
2023-02-27T01:26:59.838Z,61.35
2023-02-27T01:30:01.362Z,61.28
2023-02-27T01:33:02.904Z,61.39
2023-02-27T01:36:04.810Z,61.16
2023-02-27T01:39:06.396Z,61.37
2023-02-27T01:42:23.532Z,61.28
2023-02-27T01:45:27.117Z,61.33
2023-02-27T01:48:36.344Z,61.20
2023-02-27T01:51:41.852Z,61.36
2023-02-27T01:54:43.455Z,61.35
2023-02-27T01:57:46.410Z,61.32
2023-02-27T02:00:50.241Z,61.38
2023-02-27T02:04:20.716Z,61.33
2023-02-27T02:07:22.407Z,61.28
2023-02-27T02:10:25.088Z,61.35
2023-02-27T02:13:27.520Z,61.22
2023-02-27T02:16:54.459Z,61.40
2023-02-27T02:20:23.870Z,61.17
2023-02-27T02:24:21.171Z,61.19
2023-02-27T02:27:41.176Z,61.21
2023-02-27T02:30:57.803Z,61.22
2023-02-27T02:34:49.366Z,61.24
2023-02-27T02:38:25.109Z,61.38
2023-02-27T02:41:47.648Z,61.40
2023-02-27T02:45:24.431Z,61.36
2023-02-27T02:48:36.408Z,61.33
2023-02-27T02:51:50.874Z,61.37
2023-02-27T02:55:09.791Z,61.22
2023-02-27T02:58:26.601Z,61.23
2023-02-27T03:01:32.129Z,61.44
2023-02-27T03:04:46.642Z,61.39
2023-02-27T03:08:02.312Z,61.38
2023-02-27T03:11:05.383Z,61.38
2023-02-27T03:14:21.328Z,61.49
2023-02-27T03:17:36.802Z,61.46
2023-02-27T03:20:43.972Z,61.41
2023-02-27T03:23:47.881Z,61.43
2023-02-27T03:26:52.378Z,61.53
2023-02-27T03:30:00.586Z,61.39
2023-02-27T03:33:08.141Z,61.27
2023-02-27T03:36:27.495Z,61.18
2023-02-27T03:39:52.863Z,61.36
2023-02-27T03:43:14.031Z,61.31
2023-02-27T03:46:28.910Z,61.42
2023-02-27T03:49:30.777Z,61.35
2023-02-27T03:52:32.610Z,61.33
2023-02-27T03:55:37.843Z,61.50
2023-02-27T03:58:40.147Z,61.61
2023-02-27T04:01:43.748Z,61.41
2023-02-27T04:04:45.538Z,61.58
2023-02-27T04:08:25.980Z,61.44
2023-02-27T04:12:09.940Z,61.43
2023-02-27T04:15:22.440Z,61.41
2023-02-27T04:18:45.666Z,61.59
2023-02-27T04:22:10.084Z,61.57
2023-02-27T04:25:23.879Z,61.60
2023-02-27T04:28:48.923Z,61.75
2023-02-27T04:32:21.607Z,61.48
2023-02-27T04:35:34.990Z,61.43
2023-02-27T04:39:06.199Z,61.49
2023-02-27T04:42:16.468Z,61.42
2023-02-27T04:45:22.813Z,61.41
2023-02-27T04:48:28.293Z,61.44
2023-02-27T04:51:44.735Z,61.44
2023-02-27T04:54:49.451Z,61.42
2023-02-27T04:58:00.900Z,61.68
2023-02-27T05:01:11.686Z,61.76
2023-02-27T05:04:18.511Z,61.79
2023-02-27T05:07:26.742Z,61.71
2023-02-27T05:10:47.512Z,61.83
2023-02-27T05:13:57.292Z,61.85
2023-02-27T05:17:18.101Z,61.70
2023-02-27T05:20:19.918Z,61.89
2023-02-27T05:23:43.662Z,61.99
2023-02-27T05:27:10.054Z,61.76
2023-02-27T05:30:26.405Z,61.81
2023-02-27T05:33:37.956Z,61.82
2023-02-27T05:37:10.405Z,61.78
2023-02-27T05:40:15.795Z,61.81
2023-02-27T05:43:34.556Z,61.73
2023-02-27T05:46:41.494Z,61.72
2023-02-27T05:49:57.105Z,61.54
2023-02-27T05:53:02.974Z,61.57
2023-02-27T05:56:06.502Z,61.76
2023-02-27T05:59:17.259Z,61.55
2023-02-27T06:02:18.923Z,61.61
2023-02-27T06:05:21.568Z,61.65
2023-02-27T06:08:23.832Z,61.58
2023-02-27T06:11:25.297Z,61.50
2023-02-27T06:14:27.784Z,61.57
2023-02-27T06:17:29.330Z,61.56
2023-02-27T06:20:30.818Z,61.62
2023-02-27T06:23:32.399Z,61.66
2023-02-27T06:26:33.896Z,61.71
2023-02-27T06:29:35.401Z,61.75
2023-02-27T06:32:36.864Z,61.67
2023-02-27T06:35:38.559Z,61.71
2023-02-27T06:38:40.385Z,61.83
2023-02-27T06:41:41.890Z,61.89
2023-02-27T06:44:43.381Z,61.76
2023-02-27T06:47:44.898Z,61.79
2023-02-27T06:50:50.517Z,61.72
2023-02-27T06:53:52.274Z,61.83
2023-02-27T06:56:53.960Z,61.89
2023-02-27T06:59:55.485Z,61.76
2023-02-27T07:02:57.080Z,61.76
2023-02-27T07:05:59.029Z,61.72
2023-02-27T07:09:06.318Z,61.78
2023-02-27T07:12:08.984Z,61.78
2023-02-27T07:15:11.034Z,61.73
2023-02-27T07:18:12.649Z,61.82
2023-02-27T07:21:15.520Z,61.77
2023-02-27T07:24:17.362Z,61.74
2023-02-27T07:27:18.856Z,61.72
2023-02-27T07:30:20.534Z,61.86
2023-02-27T07:33:22.329Z,61.71
2023-02-27T07:36:23.955Z,61.62
2023-02-27T07:39:25.529Z,61.61
2023-02-27T07:42:27.023Z,61.67
2023-02-27T07:45:29.643Z,61.79
2023-02-27T07:48:32.523Z,61.61
2023-02-27T07:51:34.054Z,61.59
2023-02-27T07:54:37.542Z,61.78
2023-02-27T07:57:39.653Z,61.73
2023-02-27T08:00:41.349Z,61.69
2023-02-27T08:03:42.861Z,61.68
2023-02-27T08:06:44.750Z,62.07
2023-02-27T08:09:46.242Z,61.79
2023-02-27T08:12:47.800Z,61.80
2023-02-27T08:15:49.348Z,61.85
2023-02-27T08:18:50.828Z,61.96
2023-02-27T08:21:52.401Z,62.08
2023-02-27T08:24:53.905Z,62.37
2023-02-27T08:27:55.595Z,62.33
2023-02-27T08:30:57.162Z,62.43
2023-02-27T08:34:09.436Z,62.61
2023-02-27T08:37:11.607Z,62.61
2023-02-27T08:40:13.240Z,62.80
2023-02-27T08:43:14.725Z,63.10
2023-02-27T08:46:16.347Z,63.19
2023-02-27T08:49:20.003Z,63.26
2023-02-27T08:52:24.956Z,63.59
2023-02-27T08:55:26.543Z,63.61
2023-02-27T08:58:28.550Z,63.67
2023-02-27T09:01:34.310Z,63.92
2023-02-27T09:04:36.044Z,63.99
2023-02-27T09:07:37.494Z,64.07
2023-02-27T09:10:39.082Z,64.10
2023-02-27T09:13:40.556Z,64.17
2023-02-27T09:16:42.046Z,64.07
2023-02-27T09:19:43.573Z,63.95
2023-02-27T09:22:45.037Z,64.28
2023-02-27T09:25:47.486Z,63.97
2023-02-27T09:28:49.536Z,63.93
2023-02-27T09:31:51.771Z,64.01
2023-02-27T09:34:53.739Z,64.13
2023-02-27T09:37:57.625Z,64.00
2023-02-27T09:40:59.524Z,63.91
2023-02-27T09:44:01.638Z,63.98
2023-02-27T09:47:06.026Z,63.90
2023-02-27T09:50:22.836Z,63.98
2023-02-27T09:53:31.365Z,63.83
2023-02-27T09:56:35.495Z,63.88
2023-02-27T09:59:46.347Z,64.07
2023-02-27T10:02:53.941Z,63.77
2023-02-27T10:06:10.393Z,64.06
2023-02-27T10:09:43.061Z,64.03
2023-02-27T10:13:04.415Z,64.20
2023-02-27T10:16:09.857Z,64.30
2023-02-27T10:19:17.023Z,64.59
2023-02-27T10:22:25.148Z,64.40
2023-02-27T10:25:31.766Z,64.70
2023-02-27T10:28:34.025Z,64.73
2023-02-27T10:31:36.289Z,64.81
2023-02-27T10:34:40.872Z,64.88
2023-02-27T10:37:49.414Z,64.74
2023-02-27T10:40:51.265Z,64.67
2023-02-27T10:43:58.026Z,64.52
2023-02-27T10:46:59.549Z,64.19
2023-02-27T10:50:01.106Z,64.30
2023-02-27T10:53:06.429Z,64.03
2023-02-27T10:56:14.520Z,63.86
2023-02-27T10:59:26.315Z,63.71
2023-02-27T11:02:40.414Z,63.58
2023-02-27T11:05:41.923Z,63.65
2023-02-27T11:08:43.783Z,63.70
2023-02-27T11:11:45.326Z,63.71
2023-02-27T11:14:58.304Z,63.61
2023-02-27T11:18:25.686Z,63.61
2023-02-27T11:21:30.593Z,63.50
2023-02-27T11:24:33.053Z,63.50
2023-02-27T11:27:34.625Z,63.47
2023-02-27T11:30:37.191Z,63.46
2023-02-27T11:33:47.675Z,63.35
2023-02-27T11:36:54.108Z,63.38
2023-02-27T11:40:20.553Z,63.30
2023-02-27T11:43:21.944Z,63.24
2023-02-27T11:46:46.936Z,63.26
2023-02-27T11:50:28.473Z,63.23
2023-02-27T11:53:52.429Z,63.19
2023-02-27T11:56:58.752Z,63.25
2023-02-27T12:00:19.629Z,63.23
2023-02-27T12:03:24.655Z,63.71
2023-02-27T12:07:12.626Z,63.12
2023-02-27T12:10:20.137Z,63.20
2023-02-27T12:13:31.868Z,63.19
2023-02-27T12:16:36.509Z,63.07
2023-02-27T12:19:56.874Z,63.05
2023-02-27T12:23:01.797Z,63.12
2023-02-27T12:26:27.228Z,63.01
2023-02-27T12:29:34.488Z,63.03
2023-02-27T12:32:47.789Z,62.99
2023-02-27T12:35:58.128Z,63.09
2023-02-27T12:38:59.727Z,63.13
2023-02-27T12:42:07.223Z,63.04
2023-02-27T12:45:23.066Z,63.07
2023-02-27T12:48:51.563Z,62.95
2023-02-27T12:51:59.744Z,62.91
2023-02-27T12:55:17.639Z,62.96
2023-02-27T12:58:29.066Z,62.83
2023-02-27T13:01:48.537Z,62.68
2023-02-27T13:05:33.087Z,62.67
2023-02-27T13:09:10.315Z,62.58
2023-02-27T13:12:25.331Z,62.42
2023-02-27T13:15:50.961Z,62.41
2023-02-27T13:19:29.085Z,62.44
2023-02-27T13:22:39.689Z,62.42
2023-02-27T13:25:44.710Z,62.59
2023-02-27T13:28:46.688Z,62.48
2023-02-27T13:32:06.195Z,62.42
2023-02-27T13:35:32.192Z,62.42
2023-02-27T13:38:48.134Z,62.40
2023-02-27T13:41:49.634Z,62.38
2023-02-27T13:44:52.582Z,62.26
2023-02-27T13:47:55.535Z,62.26
2023-02-27T13:50:58.270Z,62.25
2023-02-27T13:54:19.891Z,62.15
2023-02-27T13:57:32.221Z,62.14
2023-02-27T14:00:37.730Z,62.21
2023-02-27T14:03:40.412Z,62.24
2023-02-27T14:06:45.224Z,62.28
2023-02-27T14:09:50.363Z,62.28
2023-02-27T14:12:52.966Z,62.10
2023-02-27T14:15:57.945Z,62.21
2023-02-27T14:19:01.414Z,62.24
2023-02-27T14:22:28.599Z,62.09
2023-02-27T14:25:41.181Z,62.05
2023-02-27T14:28:48.681Z,61.98
2023-02-27T14:31:52.886Z,62.03
2023-02-27T14:34:55.250Z,62.14
2023-02-27T14:37:59.667Z,62.11
2023-02-27T14:41:08.021Z,62.16
2023-02-27T14:44:20.048Z,62.24
2023-02-27T14:47:31.310Z,62.31
2023-02-27T14:50:37.267Z,62.37
2023-02-27T14:53:38.749Z,62.46
2023-02-27T14:56:41.854Z,62.72
2023-02-27T14:59:46.244Z,62.86
2023-02-27T15:02:47.813Z,63.00
2023-02-27T15:05:51.410Z,63.02
2023-02-27T15:08:55.127Z,63.09
2023-02-27T15:12:03.850Z,63.18
2023-02-27T15:15:07.729Z,63.18
2023-02-27T15:18:14.483Z,63.17
2023-02-27T15:21:16.594Z,63.05
2023-02-27T15:24:40.683Z,62.99
2023-02-27T15:27:49.266Z,62.85
2023-02-27T15:30:52.568Z,62.86
2023-02-27T15:33:54.656Z,62.85
2023-02-27T15:36:57.949Z,62.63
2023-02-27T15:40:01.285Z,62.79
2023-02-27T15:43:03.386Z,62.66
2023-02-27T15:46:05.155Z,62.58
2023-02-27T15:49:06.817Z,62.63
2023-02-27T15:52:24.050Z,62.22
2023-02-27T15:55:29.995Z,61.89
2023-02-27T15:58:37.560Z,61.41
2023-02-27T16:01:39.434Z,61.24
2023-02-27T16:04:41.043Z,61.18
2023-02-27T16:07:43.660Z,60.94
2023-02-27T16:10:46.603Z,61.00
2023-02-27T16:13:48.703Z,61.17
2023-02-27T16:16:55.072Z,60.83
2023-02-27T16:19:58.175Z,60.87
2023-02-27T16:23:05.166Z,60.77
2023-02-27T16:26:27.803Z,60.52
2023-02-27T16:29:35.692Z,60.68
2023-02-27T16:32:45.585Z,60.58
2023-02-27T16:35:47.687Z,60.50
2023-02-27T16:38:49.483Z,60.43
2023-02-27T16:41:55.159Z,60.44
2023-02-27T16:44:56.646Z,60.23
2023-02-27T16:48:00.412Z,60.16
2023-02-27T16:51:02.150Z,60.03
2023-02-27T16:54:03.849Z,59.99
2023-02-27T16:57:05.421Z,60.45
2023-02-27T17:00:07.896Z,60.24
2023-02-27T17:03:09.422Z,60.37
2023-02-27T17:06:12.419Z,60.44
2023-02-27T17:09:13.989Z,60.41
2023-02-27T17:12:15.622Z,60.54
2023-02-27T17:15:17.686Z,60.50
2023-02-27T17:18:19.971Z,60.64
2023-02-27T17:21:21.471Z,60.74
2023-02-27T17:24:23.224Z,60.77
2023-02-27T17:27:24.783Z,60.67
2023-02-27T17:30:26.443Z,60.69
2023-02-27T17:33:30.330Z,60.80
2023-02-27T17:36:32.191Z,60.77
2023-02-27T17:39:33.721Z,61.01
2023-02-27T17:42:36.493Z,61.21
2023-02-27T17:45:38.570Z,61.30
2023-02-27T17:48:40.059Z,61.47
2023-02-27T17:51:41.699Z,61.47
2023-02-27T17:54:43.485Z,61.57
2023-02-27T17:57:45.052Z,61.54
2023-02-27T18:00:46.655Z,61.49
2023-02-27T18:03:49.374Z,61.29
2023-02-27T18:06:50.974Z,61.48
2023-02-27T18:09:52.508Z,61.55
2023-02-27T18:12:54.015Z,61.74
2023-02-27T18:15:56.365Z,61.79
2023-02-27T18:18:58.073Z,61.81
2023-02-27T18:21:59.529Z,61.77
2023-02-27T18:25:01.097Z,61.89
2023-02-27T18:28:03.198Z,61.95
2023-02-27T18:31:04.975Z,61.99
2023-02-27T18:34:07.728Z,61.84
2023-02-27T18:37:10.315Z,61.87
2023-02-27T18:40:12.637Z,61.74
2023-02-27T18:43:14.199Z,61.83
2023-02-27T18:46:16.000Z,61.86
2023-02-27T18:49:17.498Z,61.84
2023-02-27T18:52:18.991Z,61.88
2023-02-27T18:55:20.803Z,61.89
2023-02-27T18:58:22.290Z,61.90
2023-02-27T19:01:25.365Z,61.90
2023-02-27T19:04:26.988Z,61.88
2023-02-27T19:07:29.796Z,61.68
2023-02-27T19:10:32.524Z,61.77
2023-02-27T19:13:34.082Z,61.83
2023-02-27T19:16:35.965Z,61.98
2023-02-27T19:19:37.612Z,61.84
2023-02-27T19:22:39.120Z,61.99
2023-02-27T19:25:41.953Z,62.02
2023-02-27T19:28:43.598Z,61.95
2023-02-27T19:31:45.357Z,62.00
2023-02-27T19:34:46.964Z,61.89
2023-02-27T19:37:54.062Z,61.92
2023-02-27T19:41:00.641Z,62.05
2023-02-27T19:44:02.198Z,61.91
2023-02-27T19:47:04.178Z,61.92
2023-02-27T19:50:07.011Z,61.79
2023-02-27T19:53:08.520Z,61.95
2023-02-27T19:56:18.988Z,61.80
2023-02-27T19:59:21.927Z,61.87
2023-02-27T20:02:23.401Z,61.77
2023-02-27T20:05:25.019Z,61.84
2023-02-27T20:08:26.591Z,61.95
2023-02-27T20:11:31.675Z,61.99
2023-02-27T20:14:33.260Z,61.94
2023-02-27T20:17:35.280Z,62.03
2023-02-27T20:20:39.383Z,62.24
2023-02-27T20:23:43.056Z,62.10
2023-02-27T20:26:49.890Z,62.16
2023-02-27T20:29:54.538Z,62.21
2023-02-27T20:32:56.540Z,62.27
2023-02-27T20:35:58.174Z,62.33
2023-02-27T20:38:59.675Z,62.29
2023-02-27T20:42:01.436Z,62.17
2023-02-27T20:45:03.160Z,62.40
2023-02-27T20:48:05.292Z,62.43
2023-02-27T20:51:08.031Z,62.46
2023-02-27T20:54:13.448Z,62.42
2023-02-27T20:57:14.953Z,62.29
2023-02-27T21:00:16.770Z,62.43
2023-02-27T21:03:18.312Z,62.14
2023-02-27T21:06:19.923Z,62.13
2023-02-27T21:09:22.227Z,62.13
2023-02-27T21:12:23.785Z,62.00
2023-02-27T21:15:25.319Z,61.81
2023-02-27T21:18:26.832Z,62.15
2023-02-27T21:21:31.841Z,61.91
2023-02-27T21:24:33.853Z,61.93
2023-02-27T21:27:35.363Z,61.98
2023-02-27T21:30:37.504Z,61.92
2023-02-27T21:33:39.071Z,62.03
2023-02-27T21:36:42.897Z,62.20
2023-02-27T21:39:47.047Z,62.28
2023-02-27T21:42:49.549Z,62.28
2023-02-27T21:45:51.974Z,62.46
2023-02-27T21:48:53.527Z,62.47
2023-02-27T21:51:55.456Z,62.49
2023-02-27T21:54:57.502Z,62.64
2023-02-27T21:57:59.002Z,62.54
2023-02-27T22:01:00.600Z,62.65
2023-02-27T22:04:03.031Z,62.71
2023-02-27T22:07:04.771Z,62.58
2023-02-27T22:10:06.492Z,62.65
2023-02-27T22:13:08.345Z,62.55
2023-02-27T22:16:11.287Z,62.64
2023-02-27T22:19:19.507Z,62.61
2023-02-27T22:22:21.142Z,62.50
2023-02-27T22:25:22.748Z,62.64
2023-02-27T22:28:24.280Z,62.61
2023-02-27T22:31:29.344Z,62.64
2023-02-27T22:34:31.333Z,62.52
2023-02-27T22:37:33.750Z,62.57
2023-02-27T22:40:36.092Z,62.46
2023-02-27T22:43:39.628Z,62.48
2023-02-27T22:46:47.094Z,62.45
2023-02-27T22:49:52.278Z,62.45
2023-02-27T22:52:53.776Z,62.44
2023-02-27T22:55:56.452Z,62.52
2023-02-27T22:58:58.921Z,62.32
2023-02-27T23:02:00.669Z,62.46
2023-02-27T23:05:02.311Z,62.45
2023-02-27T23:08:03.837Z,62.45
2023-02-27T23:11:05.974Z,62.49
2023-02-27T23:14:07.959Z,62.53
2023-02-27T23:17:09.520Z,62.39
2023-02-27T23:20:11.596Z,62.41
2023-02-27T23:23:13.059Z,62.42
2023-02-27T23:26:14.562Z,62.55
2023-02-27T23:29:16.733Z,62.57
2023-02-27T23:32:18.309Z,62.52
2023-02-27T23:35:22.826Z,62.59
2023-02-27T23:38:25.677Z,62.29
2023-02-27T23:41:27.675Z,62.25
2023-02-27T23:44:29.332Z,62.19
2023-02-27T23:47:45.738Z,62.10
2023-02-27T23:50:47.882Z,62.16
2023-02-27T23:53:49.377Z,62.36
2023-02-27T23:56:51.306Z,62.47
2023-02-27T23:59:52.786Z,62.54
